Mykonos, Greece
Current Conditions -  °F | °C
As of 8:50 PM on Friday 19 Dec 2014 (Local Time) from LGMK Reporting Station
Scattered Clouds Scattered Clouds  
Wind Chill: 55°   Ceiling: Unl
Heat Index: 55°   Visibility: 6mi
Dew Point: 50°   Wind: 10mph
Humidity: 82%   Direction: 340°NNW
Pressure: 30.15"   Gusts: NA
Location:  38.03°N, 25.36°E
Report Text: LGMK 191750Z 34009KT 9999 SCT020 13/10 Q1021
Loading
Personal Weather Stations






























Interactive Weather Map New forecast layout! Learn more

10-Day Weather Forecast

Advertisements
Track Severe Weather on mobile